createdAt,value
2023-02-18T00:04:27.922Z,60.10
2023-02-18T00:09:31.107Z,59.54
2023-02-18T00:14:34.230Z,60.28
2023-02-18T00:19:37.412Z,59.96
2023-02-18T00:24:41.036Z,59.46
2023-02-18T00:29:44.173Z,59.98
2023-02-18T00:34:47.298Z,59.39
2023-02-18T00:39:50.392Z,59.47
2023-02-18T00:44:53.885Z,59.66
2023-02-18T00:49:57.738Z,60.18
2023-02-18T00:55:01.472Z,59.49
2023-02-18T01:00:08.681Z,59.81
2023-02-18T01:05:11.934Z,59.71
2023-02-18T01:10:15.029Z,59.94
2023-02-18T01:15:18.786Z,60.09
2023-02-18T01:20:22.144Z,59.73
2023-02-18T01:25:25.216Z,59.95
2023-02-18T01:30:28.431Z,59.89
2023-02-18T01:35:31.529Z,59.37
2023-02-18T01:40:34.995Z,59.79
2023-02-18T01:45:47.141Z,59.90
2023-02-18T01:51:27.420Z,59.63
2023-02-18T01:56:51.481Z,59.87
2023-02-18T02:01:55.700Z,59.73
2023-02-18T02:07:00.803Z,59.71
2023-02-18T02:12:25.242Z,59.28
2023-02-18T02:17:34.947Z,59.56
2023-02-18T02:22:47.321Z,59.47
2023-02-18T02:28:30.959Z,59.46
2023-02-18T02:33:55.738Z,59.14
2023-02-18T02:39:13.297Z,59.26
2023-02-18T02:44:27.215Z,59.41
2023-02-18T02:49:53.886Z,58.90
2023-02-18T02:54:57.209Z,59.38
2023-02-18T03:00:10.199Z,58.53
2023-02-18T03:06:08.158Z,58.32
2023-02-18T03:11:15.009Z,58.29
2023-02-18T03:16:18.988Z,58.27
2023-02-18T03:21:33.334Z,58.49
2023-02-18T03:26:47.239Z,58.49
2023-02-18T03:31:57.528Z,57.94
2023-02-18T03:37:02.825Z,57.80
2023-02-18T03:42:07.202Z,57.80
2023-02-18T03:47:10.465Z,58.15
2023-02-18T03:52:13.640Z,58.14
2023-02-18T03:57:16.916Z,58.00
2023-02-18T04:02:20.027Z,57.67
2023-02-18T04:07:23.235Z,57.78
2023-02-18T04:12:26.404Z,57.68
2023-02-18T04:17:29.623Z,57.97
2023-02-18T04:22:32.760Z,57.96
2023-02-18T04:27:38.989Z,58.01
2023-02-18T04:32:42.927Z,57.65
2023-02-18T04:37:46.266Z,58.19
2023-02-18T04:42:49.414Z,57.95
2023-02-18T04:47:53.152Z,58.05
2023-02-18T04:52:56.360Z,57.60
2023-02-18T04:57:59.481Z,57.78
2023-02-18T05:03:02.596Z,57.76
2023-02-18T05:08:05.942Z,57.71
2023-02-18T05:13:09.092Z,56.58
2023-02-18T05:18:12.767Z,56.76
2023-02-18T05:23:15.885Z,56.98
2023-02-18T05:28:19.192Z,56.19
2023-02-18T05:33:22.532Z,55.97
2023-02-18T05:38:25.844Z,56.40
2023-02-18T05:43:29.266Z,55.64
2023-02-18T05:48:32.819Z,56.31
2023-02-18T05:53:35.941Z,55.52
2023-02-18T05:58:39.201Z,54.83
2023-02-18T06:03:42.231Z,54.81
2023-02-18T06:08:45.229Z,54.42
2023-02-18T06:13:48.416Z,54.74
2023-02-18T06:18:51.588Z,54.27
2023-02-18T06:23:54.771Z,53.64
2023-02-18T06:28:58.329Z,53.28
2023-02-18T06:34:01.620Z,52.71
2023-02-18T06:39:06.114Z,52.09
2023-02-18T06:44:09.483Z,52.87
2023-02-18T06:49:12.847Z,52.88
2023-02-18T06:54:15.754Z,52.76
2023-02-18T06:59:18.804Z,51.94
2023-02-18T07:04:22.099Z,50.40
2023-02-18T07:09:25.268Z,50.92
2023-02-18T07:14:28.543Z,51.26
2023-02-18T07:19:31.815Z,51.02
2023-02-18T07:24:34.940Z,51.06
2023-02-18T07:29:38.177Z,50.69
2023-02-18T07:34:41.453Z,50.84
2023-02-18T07:39:47.733Z,50.32
2023-02-18T07:44:51.280Z,49.68
2023-02-18T07:49:54.404Z,48.13
2023-02-18T07:54:57.709Z,47.66
2023-02-18T08:00:00.795Z,47.88
2023-02-18T08:05:04.318Z,48.39
2023-02-18T08:10:08.124Z,48.48
2023-02-18T08:15:11.484Z,48.07
2023-02-18T08:20:14.640Z,48.10
2023-02-18T08:25:28.977Z,48.35
2023-02-18T08:30:33.019Z,47.92
2023-02-18T08:35:36.202Z,47.89
2023-02-18T08:40:39.712Z,48.16
2023-02-18T08:45:44.544Z,48.37
2023-02-18T08:50:48.545Z,48.19
2023-02-18T08:55:51.927Z,48.60
2023-02-18T09:00:55.287Z,48.62
2023-02-18T09:05:59.908Z,48.91
2023-02-18T09:11:04.439Z,48.95
2023-02-18T09:16:14.902Z,49.05
2023-02-18T09:21:18.376Z,49.38
2023-02-18T09:26:22.804Z,49.26
2023-02-18T09:31:28.132Z,49.64
2023-02-18T09:36:34.578Z,49.76
2023-02-18T09:41:48.298Z,49.62
2023-02-18T09:47:06.857Z,49.33
2023-02-18T09:52:13.137Z,49.31
2023-02-18T09:57:27.823Z,49.58
2023-02-18T10:02:32.868Z,50.03
2023-02-18T10:07:39.028Z,50.61
2023-02-18T10:12:43.551Z,50.75
2023-02-18T10:17:48.697Z,50.73
